Weather at Krystallopigi Border Crossing Heliport

Public forecast

Using degrees Celsius for public forecast. Weather courtesy of forecast.io.

Closest aviation weather report (METAR) to Krystallopigi Border Crossing Heliport

Closest report is Ohrid St. Paul the Apostle Airport, 36.4 nm (67.5 km) NNW.

2024/05/20 18:50 (retrieved 1 hour ago)

LWOH 201850Z VRB03KT 9999 FEW040 19/16 Q1013

Closest aviation forecast (TAF) to Krystallopigi Border Crossing Heliport

Closest forecast is Ohrid St. Paul the Apostle Airport, 36.4 nm (67.5 km) NNW.

2024/05/20 18:18 (retrieved 2 hours ago)

TAF LWOH 201712Z 2018/2118 14006KT 9999 FEW040 PROB30 TEMPO 2018/2022 VRB15KT TSRA FEW030CB BKN040